createdAt,value
2022-12-08T00:02:07.450Z,68.03
2022-12-08T00:04:55.513Z,68.09
2022-12-08T00:07:42.612Z,68.15
2022-12-08T00:10:46.585Z,68.68
2022-12-08T00:12:59.174Z,68.03
2022-12-08T00:15:27.194Z,68.00
2022-12-08T00:17:55.073Z,67.55
2022-12-08T00:20:23.160Z,68.03
2022-12-08T00:22:52.521Z,67.47
2022-12-08T00:25:20.452Z,67.72
2022-12-08T00:27:48.418Z,67.70
2022-12-08T00:30:16.522Z,67.99
2022-12-08T00:32:44.573Z,68.23
2022-12-08T00:35:12.562Z,68.06
2022-12-08T00:37:40.447Z,67.91
2022-12-08T00:40:10.620Z,67.60
2022-12-08T00:42:38.592Z,67.34
2022-12-08T00:45:07.007Z,66.99
2022-12-08T00:47:34.939Z,67.38
2022-12-08T00:50:03.226Z,67.14
2022-12-08T00:52:31.404Z,67.38
2022-12-08T00:54:59.284Z,67.38
2022-12-08T00:57:28.657Z,67.42
2022-12-08T00:59:57.500Z,67.17
2022-12-08T01:02:25.887Z,66.92
2022-12-08T01:04:54.110Z,66.68
2022-12-08T01:07:22.040Z,66.69
2022-12-08T01:09:49.916Z,66.85
2022-12-08T01:12:17.810Z,67.04
2022-12-08T01:14:47.253Z,66.79
2022-12-08T01:17:15.441Z,66.98
2022-12-08T01:19:43.396Z,67.00
2022-12-08T01:22:11.311Z,66.78
2022-12-08T01:24:39.310Z,66.87
2022-12-08T01:27:07.229Z,66.49
2022-12-08T01:29:35.794Z,66.53
2022-12-08T01:32:05.460Z,66.64
2022-12-08T01:34:33.356Z,66.76
2022-12-08T01:37:01.207Z,66.62
2022-12-08T01:39:30.081Z,66.76
2022-12-08T01:41:58.036Z,66.47
2022-12-08T01:44:44.889Z,66.63
2022-12-08T01:47:14.287Z,66.46
2022-12-08T01:49:42.253Z,66.54
2022-12-08T01:52:12.582Z,66.03
2022-12-08T01:54:42.661Z,66.45
2022-12-08T01:57:13.191Z,66.55
2022-12-08T01:59:43.365Z,66.33
2022-12-08T02:02:12.219Z,66.50
2022-12-08T02:04:41.603Z,66.61
2022-12-08T02:07:13.392Z,66.02
2022-12-08T02:09:42.947Z,66.50
2022-12-08T02:12:11.621Z,66.53
2022-12-08T02:15:05.123Z,66.19
2022-12-08T02:17:39.269Z,66.53
2022-12-08T02:20:35.108Z,66.09
2022-12-08T02:23:05.414Z,66.74
2022-12-08T02:25:39.705Z,66.56
2022-12-08T02:28:17.679Z,66.28
2022-12-08T02:30:51.796Z,66.69
2022-12-08T02:33:34.802Z,66.41
2022-12-08T02:36:06.255Z,66.75
2022-12-08T02:38:41.522Z,66.88
2022-12-08T02:41:17.175Z,66.42
2022-12-08T02:43:46.736Z,66.91
2022-12-08T02:46:17.048Z,66.52
2022-12-08T02:48:45.122Z,66.71
2022-12-08T02:51:14.435Z,66.66
2022-12-08T02:53:42.836Z,66.85
2022-12-08T02:56:18.401Z,66.80
2022-12-08T02:58:58.702Z,66.79
2022-12-08T03:01:34.773Z,66.75
2022-12-08T03:04:07.587Z,66.89
2022-12-08T03:06:43.704Z,66.93
2022-12-08T03:09:13.775Z,66.69
2022-12-08T03:11:43.924Z,66.86
2022-12-08T03:14:13.591Z,66.17
2022-12-08T03:16:43.047Z,66.12
2022-12-08T03:19:13.606Z,66.91
2022-12-08T03:21:44.839Z,66.33
2022-12-08T03:24:14.052Z,66.64
2022-12-08T03:26:45.255Z,66.79
2022-12-08T03:29:13.678Z,66.47
2022-12-08T03:31:44.169Z,66.68
2022-12-08T03:34:13.887Z,66.62
2022-12-08T03:36:44.617Z,66.10
2022-12-08T03:39:12.659Z,66.38
2022-12-08T03:41:40.567Z,66.58
2022-12-08T03:44:08.874Z,66.26
2022-12-08T03:46:36.758Z,67.31
2022-12-08T03:49:05.010Z,66.94
2022-12-08T03:51:32.957Z,66.74
2022-12-08T03:54:02.390Z,67.65
2022-12-08T03:56:31.905Z,67.13
2022-12-08T03:59:00.474Z,67.17
2022-12-08T04:01:28.696Z,66.83
2022-12-08T04:03:56.789Z,66.97
2022-12-08T04:06:25.190Z,66.83
2022-12-08T04:08:53.361Z,66.76
2022-12-08T04:11:22.964Z,67.30
2022-12-08T04:13:50.853Z,67.31
2022-12-08T04:16:20.205Z,67.41
2022-12-08T04:18:48.351Z,67.34
2022-12-08T04:21:16.251Z,67.44
2022-12-08T04:23:44.526Z,68.80
2022-12-08T04:26:14.314Z,68.92
2022-12-08T04:28:43.750Z,68.68
2022-12-08T04:31:11.899Z,68.58
2022-12-08T04:33:40.054Z,68.65
2022-12-08T04:36:08.783Z,68.74
2022-12-08T04:38:36.789Z,68.68
2022-12-08T04:41:04.762Z,69.03
2022-12-08T04:43:32.732Z,69.10
2022-12-08T04:46:02.138Z,69.10
2022-12-08T04:48:30.195Z,68.99
2022-12-08T04:50:58.081Z,68.91
2022-12-08T04:53:26.860Z,68.57
2022-12-08T04:55:54.811Z,68.45
2022-12-08T04:58:23.054Z,68.95
2022-12-08T05:00:51.223Z,68.47
2022-12-08T05:03:26.885Z,68.99
2022-12-08T05:05:56.604Z,68.76
2022-12-08T05:08:24.856Z,69.05
2022-12-08T05:10:52.870Z,69.08
2022-12-08T05:13:20.808Z,68.56
2022-12-08T05:15:48.963Z,68.66
2022-12-08T05:18:17.085Z,68.65
2022-12-08T05:20:46.545Z,68.74
2022-12-08T05:23:14.479Z,68.75
2022-12-08T05:25:42.496Z,68.57
2022-12-08T05:28:39.532Z,68.53
2022-12-08T05:30:59.219Z,68.59
2022-12-08T05:33:27.238Z,68.45
2022-12-08T05:35:56.764Z,68.41
2022-12-08T05:38:24.817Z,68.20
2022-12-08T05:40:52.841Z,68.36
2022-12-08T05:43:20.794Z,68.38
2022-12-08T05:45:48.799Z,67.99
2022-12-08T05:48:17.085Z,68.48
2022-12-08T05:50:47.326Z,68.16
2022-12-08T05:53:16.855Z,67.87
2022-12-08T05:55:44.939Z,68.18
2022-12-08T05:58:14.197Z,68.16
2022-12-08T06:00:42.378Z,68.49
2022-12-08T06:03:12.316Z,68.13
2022-12-08T06:05:41.427Z,68.19
2022-12-08T06:08:09.621Z,67.97
2022-12-08T06:10:40.442Z,68.41
2022-12-08T06:13:08.566Z,68.27
2022-12-08T06:15:36.512Z,68.38
2022-12-08T06:18:04.730Z,68.50
2022-12-08T06:20:32.724Z,68.61
2022-12-08T06:23:00.790Z,68.52
2022-12-08T06:25:28.853Z,67.95
2022-12-08T06:27:58.263Z,67.89
2022-12-08T06:30:27.460Z,67.63
2022-12-08T06:32:55.667Z,67.54
2022-12-08T06:35:23.589Z,67.95
2022-12-08T06:37:52.161Z,68.21
2022-12-08T06:40:20.307Z,67.64
2022-12-08T06:42:48.309Z,67.25
2022-12-08T06:45:18.700Z,67.48
2022-12-08T06:47:46.710Z,67.09
2022-12-08T06:50:14.677Z,66.90
2022-12-08T06:52:54.302Z,67.31
2022-12-08T06:55:57.239Z,67.25
2022-12-08T06:58:15.180Z,66.61
2022-12-08T07:00:44.574Z,66.66
2022-12-08T07:03:13.298Z,66.27
2022-12-08T07:05:41.393Z,65.97
2022-12-08T07:08:10.359Z,65.94
2022-12-08T07:10:38.585Z,65.95
2022-12-08T07:13:06.509Z,66.09
2022-12-08T07:15:34.625Z,65.67
2022-12-08T07:18:03.938Z,65.87
2022-12-08T07:20:31.917Z,66.09
2022-12-08T07:22:59.918Z,66.09
2022-12-08T07:25:28.131Z,65.51
2022-12-08T07:27:56.314Z,65.68
2022-12-08T07:30:24.455Z,65.15
2022-12-08T07:32:52.498Z,64.70
2022-12-08T07:35:23.074Z,64.84
2022-12-08T07:37:51.318Z,64.03
2022-12-08T07:40:19.375Z,65.05
2022-12-08T07:42:47.464Z,64.44
2022-12-08T07:45:15.406Z,64.76
2022-12-08T07:47:43.554Z,64.83
2022-12-08T07:50:11.775Z,64.29
2022-12-08T07:52:41.090Z,64.11
2022-12-08T07:55:09.718Z,64.31
2022-12-08T07:57:37.757Z,64.10
2022-12-08T08:00:06.918Z,64.06
2022-12-08T08:02:35.846Z,63.73
2022-12-08T08:05:04.266Z,63.59
2022-12-08T08:07:32.932Z,63.40
2022-12-08T08:10:02.843Z,63.30
2022-12-08T08:12:32.520Z,63.52
2022-12-08T08:15:01.469Z,63.50
2022-12-08T08:17:30.036Z,63.10
2022-12-08T08:19:58.314Z,63.38
2022-12-08T08:22:26.464Z,62.95
2022-12-08T08:24:54.488Z,62.94
2022-12-08T08:27:25.307Z,63.21
2022-12-08T08:29:53.372Z,63.05
2022-12-08T08:32:21.722Z,63.07
2022-12-08T08:34:49.657Z,63.08
2022-12-08T08:37:18.087Z,62.95
2022-12-08T08:39:46.623Z,63.14
2022-12-08T08:42:14.592Z,62.78
2022-12-08T08:44:43.981Z,62.94
2022-12-08T08:47:14.698Z,62.92
2022-12-08T08:49:42.698Z,63.14
2022-12-08T08:52:11.260Z,62.76
2022-12-08T08:54:39.448Z,62.94
2022-12-08T08:57:07.566Z,63.15
2022-12-08T08:59:35.765Z,63.39
2022-12-08T09:02:05.229Z,63.39
2022-12-08T09:04:33.277Z,63.34
2022-12-08T09:07:02.211Z,63.73
2022-12-08T09:09:31.283Z,63.63
2022-12-08T09:11:59.501Z,63.27
2022-12-08T09:14:28.026Z,63.30
2022-12-08T09:16:56.336Z,63.28
2022-12-08T09:19:25.807Z,63.57
2022-12-08T09:21:53.845Z,63.57
2022-12-08T09:24:21.960Z,63.48
2022-12-08T09:26:50.049Z,63.49
2022-12-08T09:29:18.352Z,63.58
2022-12-08T09:31:46.533Z,63.83
2022-12-08T09:34:14.890Z,63.67
2022-12-08T09:36:44.369Z,63.92
2022-12-08T09:39:12.360Z,63.84
2022-12-08T09:41:48.352Z,63.77
2022-12-08T09:44:31.624Z,63.64
2022-12-08T09:47:00.081Z,63.81
2022-12-08T09:49:35.987Z,63.64
2022-12-08T09:52:07.043Z,63.94
2022-12-08T09:54:35.863Z,63.91
2022-12-08T09:57:07.975Z,63.92
2022-12-08T09:59:36.822Z,64.07
2022-12-08T10:02:11.303Z,64.66
2022-12-08T10:04:43.280Z,64.64
2022-12-08T10:07:18.049Z,64.74
2022-12-08T10:09:51.189Z,64.85
2022-12-08T10:12:21.442Z,64.89
2022-12-08T10:14:56.420Z,65.75
2022-12-08T10:17:27.156Z,65.87
2022-12-08T10:19:59.067Z,65.57
2022-12-08T10:22:33.045Z,65.63
2022-12-08T10:25:01.969Z,65.92
2022-12-08T10:27:31.374Z,66.30
2022-12-08T10:29:59.332Z,65.60
2022-12-08T10:32:30.870Z,65.55
2022-12-08T10:35:03.903Z,65.57
2022-12-08T10:37:33.335Z,65.38
2022-12-08T10:40:03.088Z,65.38
2022-12-08T10:42:36.681Z,65.41
2022-12-08T10:45:19.782Z,65.67
2022-12-08T10:47:58.642Z,65.87
2022-12-08T10:50:30.252Z,65.61
2022-12-08T10:53:01.233Z,65.68
2022-12-08T10:55:29.962Z,65.45
2022-12-08T10:57:58.104Z,65.49
2022-12-08T11:00:27.959Z,65.44
2022-12-08T11:02:58.729Z,66.06
2022-12-08T11:05:29.255Z,65.39
2022-12-08T11:07:57.988Z,65.44
2022-12-08T11:10:33.636Z,65.46
2022-12-08T11:13:02.958Z,65.30
2022-12-08T11:15:34.852Z,65.30
2022-12-08T11:18:07.848Z,65.93
2022-12-08T11:20:39.557Z,65.67
2022-12-08T11:23:20.129Z,65.34
2022-12-08T11:25:50.729Z,65.26
2022-12-08T11:28:21.417Z,65.68
2022-12-08T11:30:51.611Z,65.60
2022-12-08T11:33:23.709Z,65.81
2022-12-08T11:35:53.971Z,65.56
2022-12-08T11:38:23.952Z,65.60
2022-12-08T11:40:54.474Z,65.66
2022-12-08T11:43:24.886Z,65.98
2022-12-08T11:45:57.732Z,66.45
2022-12-08T11:48:28.282Z,66.48
2022-12-08T11:50:59.844Z,66.46
2022-12-08T11:53:30.738Z,66.43
2022-12-08T11:56:02.194Z,66.82
2022-12-08T11:58:36.277Z,66.60
2022-12-08T12:01:04.174Z,66.66
2022-12-08T12:03:35.264Z,66.42
2022-12-08T12:06:38.320Z,66.37
2022-12-08T12:09:14.155Z,66.52
2022-12-08T12:12:05.830Z,66.75
2022-12-08T12:14:46.145Z,66.77
2022-12-08T12:17:24.061Z,66.72
2022-12-08T12:19:53.492Z,66.88
2022-12-08T12:22:23.569Z,66.68
2022-12-08T12:24:53.357Z,66.90
2022-12-08T12:27:26.315Z,67.48
2022-12-08T12:29:56.528Z,67.32
2022-12-08T12:32:25.083Z,67.04
2022-12-08T12:34:54.724Z,66.92
2022-12-08T12:37:24.550Z,66.78
2022-12-08T12:39:57.111Z,67.05
2022-12-08T12:42:43.804Z,66.88
2022-12-08T12:45:13.300Z,66.98
2022-12-08T12:47:52.557Z,67.38
2022-12-08T12:50:43.414Z,67.36
2022-12-08T12:53:26.173Z,67.12
2022-12-08T12:55:55.487Z,67.08
2022-12-08T12:58:35.905Z,67.49
2022-12-08T13:01:22.420Z,67.33
2022-12-08T13:03:52.888Z,67.11
2022-12-08T13:06:24.688Z,67.20
2022-12-08T13:08:54.561Z,67.33
2022-12-08T13:11:23.390Z,67.77
2022-12-08T13:13:59.137Z,67.86
2022-12-08T13:16:28.256Z,67.67
2022-12-08T13:18:58.978Z,67.67
2022-12-08T13:21:32.913Z,67.81
2022-12-08T13:24:17.846Z,67.72
2022-12-08T13:26:46.824Z,67.87
2022-12-08T13:29:18.245Z,67.86
2022-12-08T13:31:50.876Z,67.42
2022-12-08T13:34:21.370Z,67.68
2022-12-08T13:36:52.237Z,67.68
2022-12-08T13:39:23.270Z,67.68
2022-12-08T13:41:56.151Z,67.80
2022-12-08T13:47:37.102Z,67.71
2022-12-08T13:58:41.319Z,67.67
2022-12-08T14:01:15.381Z,68.08
2022-12-08T14:04:21.711Z,67.79
2022-12-08T14:06:38.893Z,67.93
2022-12-08T14:09:11.082Z,67.27
2022-12-08T14:11:41.350Z,67.78
2022-12-08T14:14:10.840Z,67.72
2022-12-08T14:16:41.249Z,68.04
2022-12-08T14:19:17.715Z,67.76
2022-12-08T14:21:49.649Z,67.79
2022-12-08T14:24:17.603Z,67.79
2022-12-08T14:26:47.285Z,67.92
2022-12-08T14:29:25.710Z,67.98
2022-12-08T14:31:56.105Z,68.01
2022-12-08T14:34:24.060Z,67.89
2022-12-08T14:36:52.779Z,68.23
2022-12-08T14:39:21.449Z,68.07
2022-12-08T14:42:00.403Z,67.89
2022-12-08T14:44:32.271Z,67.78
2022-12-08T14:47:09.271Z,67.90
2022-12-08T14:49:38.491Z,67.99
2022-12-08T14:52:11.050Z,67.60
2022-12-08T14:54:40.316Z,67.90
2022-12-08T14:57:08.956Z,68.45
2022-12-08T14:59:38.215Z,68.16
2022-12-08T15:02:22.885Z,68.20
2022-12-08T15:04:51.872Z,68.05
2022-12-08T15:07:20.800Z,68.04
2022-12-08T15:09:50.200Z,68.27
2022-12-08T15:12:26.716Z,68.15
2022-12-08T15:14:56.679Z,68.12
2022-12-08T15:17:34.642Z,68.09
2022-12-08T15:20:03.723Z,68.03
2022-12-08T15:22:32.679Z,67.96
2022-12-08T15:25:00.730Z,68.01
2022-12-08T15:27:28.937Z,67.94
2022-12-08T15:29:57.044Z,67.94
2022-12-08T15:32:25.018Z,67.76
2022-12-08T16:05:40.386Z,68.14
2022-12-08T16:07:41.867Z,68.43
2022-12-08T16:10:12.660Z,68.25
2022-12-08T16:13:55.073Z,68.44
2022-12-08T16:15:57.090Z,68.39
2022-12-08T16:18:28.274Z,68.47
2022-12-08T16:21:09.531Z,68.40
2022-12-08T16:23:44.573Z,68.79
2022-12-08T16:29:02.609Z,68.86
2022-12-08T16:31:30.890Z,68.75
2022-12-08T16:33:59.094Z,69.21
2022-12-08T16:36:28.512Z,69.10
2022-12-08T16:38:56.487Z,69.18
2022-12-08T16:41:41.846Z,69.17
2022-12-08T16:44:10.026Z,69.57
2022-12-08T16:46:38.076Z,69.49
2022-12-08T16:49:06.138Z,69.69
2022-12-08T16:51:35.482Z,69.92
2022-12-08T16:54:03.752Z,69.82
2022-12-08T16:56:33.418Z,69.53
2022-12-08T16:59:01.957Z,69.86
2022-12-08T17:01:30.158Z,69.74
2022-12-08T17:06:56.495Z,69.81
2022-12-08T17:09:24.697Z,69.88
2022-12-08T17:11:52.665Z,70.57
2022-12-08T17:14:20.791Z,70.13
2022-12-08T17:16:48.793Z,70.06
2022-12-08T17:19:17.386Z,69.82
2022-12-08T17:21:45.662Z,69.82
2022-12-08T17:24:18.684Z,70.13
2022-12-08T17:26:49.930Z,70.22
2022-12-08T17:29:18.946Z,69.91
2022-12-08T17:31:47.905Z,70.28
2022-12-08T17:34:16.158Z,70.01
2022-12-08T17:36:44.398Z,70.08
2022-12-08T17:39:18.431Z,70.15
2022-12-08T17:41:48.364Z,70.42
2022-12-08T17:44:17.494Z,70.65
2022-12-08T17:46:52.120Z,70.45
2022-12-08T17:49:22.117Z,70.44
2022-12-08T17:51:50.817Z,70.79
2022-12-08T17:54:19.392Z,70.95
2022-12-08T17:56:48.798Z,70.83
2022-12-08T17:59:16.912Z,70.72
2022-12-08T18:01:46.871Z,71.02
2022-12-08T18:04:14.943Z,71.33
2022-12-08T18:06:42.923Z,71.86
2022-12-08T18:09:10.979Z,71.88
2022-12-08T18:11:44.145Z,72.11
2022-12-08T18:14:14.346Z,71.82
2022-12-08T18:16:43.485Z,71.96
2022-12-08T18:19:12.122Z,71.98
2022-12-08T18:21:41.074Z,71.96
2022-12-08T18:24:09.805Z,71.90
2022-12-08T18:26:37.879Z,72.04
2022-12-08T18:29:05.851Z,72.29
2022-12-08T18:31:35.439Z,72.55
2022-12-08T18:34:03.510Z,72.60
2022-12-08T18:36:31.509Z,72.74
2022-12-08T18:38:59.590Z,72.68
2022-12-08T18:41:28.501Z,72.97
2022-12-08T18:43:57.253Z,72.84
2022-12-08T18:46:25.691Z,72.87
2022-12-08T18:48:55.228Z,73.00
2022-12-08T18:51:24.268Z,72.76
2022-12-08T18:53:52.943Z,72.74
2022-12-08T18:56:25.227Z,72.95
2022-12-08T18:58:55.398Z,72.76
2022-12-08T19:01:26.636Z,72.67
2022-12-08T19:04:26.867Z,73.04
2022-12-08T19:06:45.249Z,73.36
2022-12-08T19:09:14.253Z,72.95
2022-12-08T19:11:42.203Z,72.89
2022-12-08T19:14:10.730Z,73.00
2022-12-08T19:16:40.537Z,72.92
2022-12-08T19:19:10.124Z,73.00
2022-12-08T19:21:44.553Z,72.91
2022-12-08T19:24:14.230Z,73.13
2022-12-08T19:26:43.538Z,73.24
2022-12-08T19:29:12.089Z,73.25
2022-12-08T19:31:40.450Z,73.02
2022-12-08T19:34:10.868Z,73.16
2022-12-08T19:36:42.726Z,73.51
2022-12-08T19:39:32.337Z,73.41
2022-12-08T19:42:18.051Z,73.41
2022-12-08T19:44:55.287Z,73.29
2022-12-08T19:47:24.438Z,73.30
2022-12-08T19:49:55.046Z,73.22
2022-12-08T19:52:23.267Z,73.50
2022-12-08T19:54:51.160Z,73.45
2022-12-08T19:57:20.576Z,73.40
2022-12-08T19:59:54.632Z,73.50
2022-12-08T20:02:24.565Z,73.56
2022-12-08T20:04:54.205Z,73.60
2022-12-08T20:07:22.226Z,73.86
2022-12-08T20:09:50.252Z,73.44
2022-12-08T20:12:18.297Z,73.59
2022-12-08T20:14:47.081Z,73.66
2022-12-08T20:17:15.011Z,73.77
2022-12-08T20:19:42.943Z,74.21
2022-12-08T20:22:12.412Z,73.66
2022-12-08T20:24:40.488Z,73.62
2022-12-08T20:27:08.611Z,73.62
2022-12-08T20:29:38.395Z,73.50
2022-12-08T20:32:06.458Z,73.75
2022-12-08T20:34:35.376Z,73.58
2022-12-08T20:37:03.422Z,73.34
2022-12-08T20:39:32.772Z,73.59
2022-12-08T20:42:00.913Z,73.34
2022-12-08T20:44:30.314Z,73.80
2022-12-08T20:46:58.317Z,73.71
2022-12-08T20:49:31.135Z,73.58
2022-12-08T20:52:02.306Z,73.23
2022-12-08T20:54:30.310Z,73.34
2022-12-08T20:56:59.668Z,73.25
2022-12-08T20:59:28.043Z,73.29
2022-12-08T21:01:56.372Z,73.02
2022-12-08T21:04:24.713Z,73.41
2022-12-08T21:06:53.065Z,73.28
2022-12-08T21:09:21.098Z,72.92
2022-12-08T21:11:49.224Z,73.14
2022-12-08T21:14:18.888Z,73.24
2022-12-08T21:16:47.223Z,73.32
2022-12-08T21:19:15.280Z,73.36
2022-12-08T21:21:43.564Z,73.54
2022-12-08T21:24:11.832Z,73.66
2022-12-08T21:26:40.093Z,73.35
2022-12-08T21:29:08.325Z,73.32
2022-12-08T21:31:37.913Z,73.10
2022-12-08T21:34:06.207Z,73.21
2022-12-08T21:36:34.408Z,73.11
2022-12-08T21:39:02.983Z,73.58
2022-12-08T21:41:48.727Z,73.62
2022-12-08T21:44:18.756Z,73.43
2022-12-08T21:46:48.336Z,73.32
2022-12-08T21:49:16.669Z,73.41
2022-12-08T21:51:44.733Z,73.36
2022-12-08T21:54:18.255Z,73.58
2022-12-08T21:56:47.352Z,73.33
2022-12-08T21:59:15.484Z,73.54
2022-12-08T22:01:43.918Z,73.31
2022-12-08T22:04:13.746Z,73.31
2022-12-08T22:06:41.824Z,72.95
2022-12-08T22:09:13.492Z,73.21
2022-12-08T22:11:42.162Z,73.12
2022-12-08T22:14:14.439Z,73.37
2022-12-08T22:16:43.092Z,73.18
2022-12-08T22:19:11.373Z,73.33
2022-12-08T22:21:41.602Z,73.14
2022-12-08T22:24:09.971Z,73.27
2022-12-08T22:26:38.196Z,73.14
2022-12-08T22:29:06.382Z,73.70
2022-12-08T22:31:34.457Z,73.55
2022-12-08T22:34:02.505Z,74.00
2022-12-08T22:36:30.577Z,73.89
2022-12-08T22:39:00.072Z,73.82
2022-12-08T22:41:28.117Z,73.79
2022-12-08T22:43:56.041Z,73.44
2022-12-08T22:46:25.197Z,73.78
2022-12-08T22:48:54.220Z,73.91
2022-12-08T22:51:22.428Z,73.71
2022-12-08T22:53:50.832Z,74.10
2022-12-08T22:56:20.826Z,73.64
2022-12-08T22:58:48.828Z,73.32
2022-12-08T23:01:24.551Z,73.56
2022-12-08T23:03:52.641Z,73.72
2022-12-08T23:06:21.075Z,73.56
2022-12-08T23:08:49.266Z,73.83
2022-12-08T23:11:17.285Z,73.93
2022-12-08T23:13:46.751Z,73.49
2022-12-08T23:16:15.276Z,73.83
2022-12-08T23:18:44.614Z,73.90
2022-12-08T23:21:13.848Z,73.66
2022-12-08T23:23:42.135Z,73.67
2022-12-08T23:26:16.299Z,73.56
2022-12-08T23:28:44.343Z,73.44
2022-12-08T23:31:13.895Z,73.37
2022-12-08T23:33:41.934Z,73.70
2022-12-08T23:36:11.185Z,73.54
2022-12-08T23:38:39.397Z,73.56
2022-12-08T23:41:08.629Z,73.79
2022-12-08T23:43:36.608Z,73.43
2022-12-08T23:46:05.411Z,73.78
2022-12-08T23:48:35.814Z,73.75
2022-12-08T23:51:03.863Z,73.45
2022-12-08T23:53:31.973Z,73.64
2022-12-08T23:56:01.457Z,73.53
2022-12-08T23:58:29.530Z,73.37
